70KY weather

Vine Grove Airport
Vine Grove, Kentucky, United States

Public forecast

Using degrees Fahrenheit for public forecast. Weather courtesy of forecast.io.

Closest aviation weather report (METAR) to Vine Grove Airport

Closest report is Godman Army Air Field, 5.5 nm (10.2 km) N. Retrieved 2019/10/14 02:56 UTC (15 minutes ago):

KFTK 140256Z AUTO 19005KT 10SM CLR 07/04 A3002 RMK AO2 SLP170 T00710042 52013

Closest aviation forecast (TAF) to Vine Grove Airport

Closest forecast is Godman Army Air Field, 5.5 nm (10.2 km) N. Retrieved 2019-10-14 01:03 UTC (2 hours ago):

TAF TAF KFTK 140100Z 1401/1507 VRB06KT 9999 SKC QNH2996INS TX20/1420Z TN05/1412Z